Aérodrome :
LOGIN :

S'inscrire | Disclaimer

   EN    FR    IT 

 










Légende :    VFR   VFR Marginal   IFR   IFR Intensif   IFR Très Intensif
Visi : 
Plafond : 
>= 8 km
>= 3000ft
5 à 8 km
1000 à 3000 ft
1500m à 5 km
500 à 1000 ft
800 à 1500m
200 à 500 ft
< 800m
< 200 ft
Symboles :   Orages  Brouillard  Fortes neiges  Fortes précipitations  Vent > 20 kt
SIGMETs :   Divers  Orages  Givrage  Turbulence  Onde Orograph.  Cendres Volcan.






- Altitude de l'aérodrome : 526 ft
- Code IATA : LTN


EGGW - London Luton

DERNIER METAR :
  • 251550Z AUTO 24013KT 9999 SCT024 06/02 Q0995

METARs EXPIRÉS :
  • 251520Z AUTO 24014KT 9999 //////TCU 06/02 Q0996
  • 251450Z AUTO 24018KT 9999 FEW026/// //////CB 06/01 Q0996
  • 251420Z AUTO 24015G25KT 9999 SCT024/// //////TCU 07/02 Q0996
  • 251350Z AUTO 24021KT 9999 SCT024 06/02 Q0997
  • 251320Z AUTO 24015KT 9999 SCT025 BKN031 06/02 Q0997

TAF TAF EGGW
Valide du 25 à 12h jusqu'au 26 à 12h UTC


251108Z 2512/2612 27014KT 9999 FEW010 SCT030
TEMPO 2512/2518 27017G27KT 5000 SHRAGS BKN010
TEMPO 2518/2601 3000 +SHRAGS SHRASN BKN006
PROB30
TEMPO 2518/2601 1200 SHSN BKN004 BKN020CB
PROB30
TEMPO 2601/2609 29017G27KT 3000 -SHSN BKN006
TEMPO 2609/2612 29017G27KT 5000 SHRAGS BKN010
ATIS : +44 1582 395 204



MET'MAP, la Météo Aéronautique d'un coup d'oeil ! - Copyright ORBIFLY Décembre 2007 - Disclaimer

ORBIFLY MET'MAP TEAM :

Programmation & Développement : Alexandra Zaïnal
Sur une idée originale de : Baudouin d'Aumeries
Assistance à la programmation : Marc-Olivier Méhu
Soutien technique & logistique : Manuel Goepfert

Contact : metmap@orbifly.com




SOURCES & CREDITS :

   NOAA